ESCF/LPI METAR and TAF weather

Enter ICAO airport designator
Station Type Date Time Source
ESCF METAR 2019/08/19 07:20 UTC NOAA

ESCF 190720Z 23011KT 9999 SCT015 15/13 Q1007


Station Type Date Time Source
ESCF Decoded METAR 2019/08/19 07:20 UTC NOAA

Station name not available
Aug 19, 2019 - 03:20 AM EDT / 2019.08.19 0720 UTC
Wind: from the SW (230 degrees) at 13 MPH (11 KT):0
Visibility: greater than 7 mile(s):0
Sky conditions: partly cloudy
Temperature: 59 F (15 C)
Dew Point: 55 F (13 C)
Relative Humidity: 87%
Pressure (altimeter): 29.74 in. Hg (1007 hPa)
ob: ESCF 190720Z 23011KT 9999 SCT015 15/13 Q1007
cycle: 7

Station Type Date Time Source
ESCF TAF UTC NOAA

Error!

Example: see airport list